createdAt,value
2022-09-17T00:04:41.494Z,11.48
2022-09-17T00:09:44.239Z,11.50
2022-09-17T00:14:49.016Z,11.48
2022-09-17T00:19:51.590Z,11.54
2022-09-17T00:24:54.185Z,11.58
2022-09-17T00:29:58.197Z,11.58
2022-09-17T00:35:00.919Z,11.59
2022-09-17T00:40:04.073Z,11.60
2022-09-17T00:45:10.064Z,11.60
2022-09-17T00:50:15.531Z,11.60
2022-09-17T00:55:22.760Z,11.63
2022-09-17T01:00:27.136Z,11.61
2022-09-17T01:05:39.383Z,11.60
2022-09-17T01:10:59.348Z,11.61
2022-09-17T01:16:08.873Z,11.65
2022-09-17T01:21:38.939Z,11.63
2022-09-17T01:27:16.653Z,11.64
2022-09-17T01:32:25.694Z,11.64
2022-09-17T01:37:32.073Z,11.67
2022-09-17T01:42:39.007Z,11.70
2022-09-17T01:47:46.277Z,11.66
2022-09-17T01:52:52.374Z,11.65
2022-09-17T01:57:56.898Z,11.62
2022-09-17T02:03:03.269Z,11.64
2022-09-17T02:08:08.194Z,11.63
2022-09-17T02:13:16.140Z,11.64
2022-09-17T02:18:25.268Z,11.64
2022-09-17T02:23:32.989Z,11.64
2022-09-17T02:28:41.637Z,11.62
2022-09-17T02:33:49.688Z,11.64
2022-09-17T02:39:00.626Z,11.65
2022-09-17T02:44:08.447Z,11.60
2022-09-17T02:49:32.096Z,11.56
2022-09-17T02:54:41.159Z,11.63
2022-09-17T02:59:49.526Z,11.58
2022-09-17T03:04:55.621Z,11.50
2022-09-17T03:09:58.492Z,11.47
2022-09-17T03:15:01.286Z,11.45
2022-09-17T03:20:06.097Z,11.36
2022-09-17T03:25:09.798Z,11.29
2022-09-17T03:30:12.681Z,11.18
2022-09-17T03:35:17.715Z,11.04
2022-09-17T03:40:20.813Z,10.82
2022-09-17T03:45:23.551Z,10.67
2022-09-17T03:50:27.660Z,10.60
2022-09-17T03:55:30.254Z,10.52
2022-09-17T04:00:32.944Z,10.51
2022-09-17T04:05:36.904Z,10.54
2022-09-17T04:10:39.587Z,10.54
2022-09-17T04:15:42.781Z,10.55
2022-09-17T04:20:46.828Z,10.61
2022-09-17T04:25:49.390Z,10.66
2022-09-17T04:30:52.075Z,10.62
2022-09-17T04:35:55.983Z,10.54
2022-09-17T04:40:59.083Z,10.52
2022-09-17T04:46:01.669Z,10.62
2022-09-17T04:51:06.077Z,10.66
2022-09-17T04:56:08.630Z,10.67
2022-09-17T05:01:11.297Z,10.62
2022-09-17T05:06:15.472Z,10.60
2022-09-17T05:11:18.050Z,10.62
2022-09-17T05:16:20.755Z,10.69
2022-09-17T05:21:25.009Z,10.72
2022-09-17T05:26:27.643Z,10.67
2022-09-17T05:31:31.117Z,10.63
2022-09-17T05:36:35.215Z,10.71
2022-09-17T05:41:37.784Z,10.82
2022-09-17T05:46:40.525Z,10.91
2022-09-17T05:51:44.518Z,10.99
2022-09-17T05:56:47.103Z,11.08
2022-09-17T06:01:50.854Z,11.17
2022-09-17T06:06:54.849Z,11.23
2022-09-17T06:11:57.472Z,11.27
2022-09-17T06:17:00.316Z,11.43
2022-09-17T06:22:05.800Z,11.50
2022-09-17T06:27:08.477Z,11.65
2022-09-17T06:32:13.019Z,11.79
2022-09-17T06:37:17.492Z,11.84
2022-09-17T06:42:20.092Z,11.82
2022-09-17T06:47:25.319Z,11.80
2022-09-17T06:52:29.308Z,11.87
2022-09-17T06:57:31.965Z,12.03
2022-09-17T07:02:34.861Z,12.17
2022-09-17T07:07:40.357Z,12.21
2022-09-17T07:12:47.846Z,12.30
2022-09-17T07:17:52.915Z,12.25
2022-09-17T07:22:59.855Z,12.44
2022-09-17T07:28:03.931Z,12.54
2022-09-17T07:33:06.526Z,12.50
2022-09-17T07:38:10.435Z,12.56
2022-09-17T07:43:13.016Z,12.76
2022-09-17T07:48:15.616Z,12.82
2022-09-17T07:53:19.908Z,12.80
2022-09-17T07:58:22.783Z,12.88
2022-09-17T08:03:25.401Z,12.97
2022-09-17T08:08:29.316Z,12.88
2022-09-17T08:13:32.187Z,12.87
2022-09-17T08:18:35.639Z,13.02
2022-09-17T08:23:41.223Z,12.94
2022-09-17T08:28:47.751Z,13.01
2022-09-17T08:33:50.522Z,13.14
2022-09-17T08:38:55.592Z,13.26
2022-09-17T08:44:07.618Z,13.41
2022-09-17T08:49:15.722Z,13.32
2022-09-17T08:54:24.324Z,13.29
2022-09-17T08:59:30.975Z,13.37
2022-09-17T09:04:59.585Z,13.49
2022-09-17T09:10:13.860Z,13.62
2022-09-17T09:15:30.317Z,13.66
2022-09-17T09:20:41.380Z,13.67
2022-09-17T09:25:53.656Z,13.62
2022-09-17T09:31:01.621Z,13.61
2022-09-17T09:36:07.514Z,13.85
2022-09-17T09:41:14.371Z,13.93
2022-09-17T09:46:32.648Z,13.79
2022-09-17T09:51:42.069Z,13.80
2022-09-17T09:56:57.427Z,13.89
2022-09-17T10:02:00.415Z,13.77
2022-09-17T10:07:05.709Z,13.56
2022-09-17T10:12:18.591Z,13.11
2022-09-17T10:17:23.492Z,13.10
2022-09-17T10:22:28.535Z,13.55
2022-09-17T10:27:32.768Z,13.34
2022-09-17T10:32:35.401Z,13.45
2022-09-17T10:37:44.389Z,13.37
2022-09-17T10:42:49.112Z,13.09
2022-09-17T10:47:52.369Z,13.14
2022-09-17T10:52:56.640Z,13.14
2022-09-17T10:58:10.347Z,13.31
2022-09-17T11:04:00.604Z,13.57
2022-09-17T11:09:11.704Z,14.48
2022-09-17T11:14:26.834Z,15.55
2022-09-17T11:19:38.518Z,16.79
2022-09-17T11:25:02.598Z,20.03
2022-09-17T11:30:11.703Z,21.25
2022-09-17T11:35:17.947Z,18.86
2022-09-17T11:40:23.886Z,16.65
2022-09-17T11:45:30.328Z,14.74
2022-09-17T11:50:37.553Z,13.51
2022-09-17T11:56:16.867Z,12.82
2022-09-17T12:01:27.196Z,13.67
2022-09-17T12:06:37.231Z,16.54
2022-09-17T12:11:42.729Z,16.70
2022-09-17T12:16:49.578Z,19.18
2022-09-17T12:21:55.613Z,19.34
2022-09-17T12:27:07.445Z,17.88
2022-09-17T12:32:26.234Z,19.47
2022-09-17T12:37:34.583Z,21.67
2022-09-17T12:42:50.316Z,24.01
2022-09-17T12:48:18.507Z,22.69
2022-09-17T12:53:25.025Z,20.56
2022-09-17T12:58:39.915Z,17.80
2022-09-17T13:03:48.196Z,18.37
2022-09-17T13:09:05.142Z,18.94
2022-09-17T13:14:14.616Z,19.64
2022-09-17T13:19:29.781Z,19.49
2022-09-17T13:24:33.150Z,19.55
2022-09-17T13:30:01.555Z,19.13
2022-09-17T13:35:49.008Z,18.76
2022-09-17T13:40:51.737Z,18.21
2022-09-17T13:46:11.293Z,17.87
2022-09-17T13:51:44.819Z,19.12
2022-09-17T13:56:50.712Z,18.92
2022-09-17T14:02:05.162Z,18.91
2022-09-17T14:07:33.408Z,18.89
2022-09-17T14:12:53.406Z,18.96
2022-09-17T14:17:56.219Z,18.36
2022-09-17T14:23:01.958Z,18.36
2022-09-17T14:28:09.742Z,18.57
2022-09-17T14:33:17.431Z,18.45
2022-09-17T14:38:24.754Z,18.67
2022-09-17T14:43:34.878Z,19.04
2022-09-17T14:48:37.893Z,19.09
2022-09-17T14:53:41.820Z,18.67
2022-09-17T14:58:47.570Z,19.31
2022-09-17T15:03:50.266Z,18.51
2022-09-17T15:08:58.530Z,18.70
2022-09-17T15:14:04.261Z,19.30
2022-09-17T15:19:07.056Z,19.83
2022-09-17T15:24:16.823Z,19.80
2022-09-17T15:29:22.770Z,19.08
2022-09-17T15:34:25.377Z,18.75
2022-09-17T15:39:38.125Z,18.08
2022-09-17T15:44:40.943Z,16.90
2022-09-17T15:49:43.779Z,16.57
2022-09-17T15:54:47.721Z,15.74
2022-09-17T15:59:50.611Z,15.50
2022-09-17T16:05:32.485Z,15.01
2022-09-17T16:10:36.635Z,14.45
2022-09-17T16:15:40.546Z,14.18
2022-09-17T16:20:43.493Z,14.13
2022-09-17T16:25:47.453Z,14.18
2022-09-17T16:30:50.502Z,14.22
2022-09-17T16:35:53.090Z,14.23
2022-09-17T16:40:57.042Z,14.14
2022-09-17T16:46:00.582Z,13.89
2022-09-17T16:51:07.931Z,13.48
2022-09-17T16:56:13.708Z,13.22
2022-09-17T17:01:17.231Z,13.04
2022-09-17T17:06:21.015Z,12.94
2022-09-17T17:11:25.111Z,12.91
2022-09-17T17:16:27.771Z,13.07
2022-09-17T17:21:30.465Z,12.91
2022-09-17T17:26:34.494Z,12.72
2022-09-17T17:31:37.720Z,12.82
2022-09-17T17:36:40.410Z,12.90
2022-09-17T17:41:46.481Z,12.84
2022-09-17T17:46:52.408Z,12.78
2022-09-17T17:51:55.068Z,12.52
2022-09-17T17:56:59.002Z,12.39
2022-09-17T18:02:01.883Z,12.36
2022-09-17T18:07:04.711Z,12.33
2022-09-17T18:12:09.142Z,12.33
2022-09-17T18:17:11.752Z,12.31
2022-09-17T18:22:14.367Z,12.36
2022-09-17T18:27:18.466Z,12.31
2022-09-17T18:32:21.077Z,12.36
2022-09-17T18:37:23.845Z,12.37
2022-09-17T18:42:27.810Z,12.25
2022-09-17T18:47:30.688Z,12.19
2022-09-17T18:52:33.295Z,11.78
2022-09-17T18:57:37.256Z,11.54
2022-09-17T19:02:40.260Z,11.14
2022-09-17T19:07:45.761Z,10.88
2022-09-17T19:12:50.051Z,10.59
2022-09-17T19:17:54.228Z,10.55
2022-09-17T19:22:56.949Z,10.51
2022-09-17T19:28:00.946Z,10.35
2022-09-17T19:33:04.696Z,10.12
2022-09-17T19:38:12.565Z,9.88
2022-09-17T19:43:17.210Z,9.87
2022-09-17T19:48:23.261Z,9.99
2022-09-17T19:53:27.961Z,10.16
2022-09-17T19:58:31.933Z,10.18
2022-09-17T20:03:34.636Z,10.17
2022-09-17T20:08:42.512Z,10.15
2022-09-17T20:13:47.625Z,9.96
2022-09-17T20:18:51.280Z,9.79
2022-09-17T20:23:54.189Z,9.77
2022-09-17T20:28:58.238Z,9.82
2022-09-17T20:34:02.616Z,9.84
2022-09-17T20:39:12.303Z,9.84
2022-09-17T20:44:18.902Z,9.76
2022-09-17T20:49:21.664Z,9.68
2022-09-17T20:54:24.264Z,9.68
2022-09-17T20:59:43.272Z,9.76
2022-09-17T21:04:45.880Z,9.69
2022-09-17T21:09:48.775Z,9.77
2022-09-17T21:14:52.754Z,9.80
2022-09-17T21:19:55.444Z,9.81
2022-09-17T21:24:59.380Z,9.85
2022-09-17T21:30:05.056Z,9.84
2022-09-17T21:35:08.190Z,9.88
2022-09-17T21:40:11.710Z,9.87
2022-09-17T21:45:15.924Z,9.85
2022-09-17T21:50:18.610Z,9.81
2022-09-17T21:55:21.187Z,9.88
2022-09-17T22:00:25.527Z,9.82
2022-09-17T22:05:29.675Z,9.60
2022-09-17T22:10:32.421Z,9.52
2022-09-17T22:15:36.462Z,9.46
2022-09-17T22:20:39.215Z,9.50
2022-09-17T22:25:41.828Z,9.51
2022-09-17T22:30:45.957Z,9.60
2022-09-17T22:35:48.674Z,9.60
2022-09-17T22:40:51.343Z,9.54
2022-09-17T22:45:55.269Z,9.59
2022-09-17T22:50:57.924Z,9.57
2022-09-17T22:56:01.066Z,9.63
2022-09-17T23:01:07.524Z,9.57
2022-09-17T23:06:12.322Z,9.49
2022-09-17T23:11:18.625Z,9.59
2022-09-17T23:16:22.638Z,9.59
2022-09-17T23:21:25.364Z,9.60
2022-09-17T23:26:29.522Z,9.55
2022-09-17T23:31:35.021Z,9.49
2022-09-17T23:36:39.791Z,9.59
2022-09-17T23:41:45.332Z,9.73
2022-09-17T23:46:49.435Z,9.83
2022-09-17T23:51:52.224Z,9.95
2022-09-17T23:56:54.994Z,9.94
